createdAt,value
2023-01-28T00:02:09.507Z,3.80
2023-01-28T00:04:37.745Z,3.80
2023-01-28T00:07:05.888Z,3.80
2023-01-28T00:09:35.385Z,3.80
2023-01-28T00:12:03.448Z,3.80
2023-01-28T00:14:31.569Z,3.80
2023-01-28T00:16:59.715Z,3.80
2023-01-28T00:19:27.737Z,3.80
2023-01-28T00:21:55.802Z,3.80
2023-01-28T00:24:24.103Z,3.80
2023-01-28T00:26:53.538Z,3.90
2023-01-28T00:29:21.558Z,3.90
2023-01-28T00:31:49.683Z,3.80
2023-01-28T00:34:17.998Z,3.80
2023-01-28T00:36:46.169Z,3.70
2023-01-28T00:39:16.137Z,3.70
2023-01-28T00:41:46.460Z,3.70
2023-01-28T00:44:15.913Z,3.80
2023-01-28T00:46:44.063Z,3.80
2023-01-28T00:49:12.324Z,3.70
2023-01-28T00:51:40.571Z,3.70
2023-01-28T00:54:09.129Z,3.70
2023-01-28T00:56:37.921Z,3.60
2023-01-28T00:59:06.189Z,3.70
2023-01-28T01:01:35.854Z,3.60
2023-01-28T01:04:04.038Z,3.60
2023-01-28T01:06:34.189Z,3.60
2023-01-28T01:09:03.440Z,3.60
2023-01-28T01:11:31.578Z,3.60
2023-01-28T01:14:01.737Z,3.60
2023-01-28T01:16:33.352Z,3.60
2023-01-28T01:19:03.164Z,3.60
2023-01-28T01:21:32.266Z,3.60
2023-01-28T01:24:00.446Z,3.60
2023-01-28T01:26:28.539Z,3.60
2023-01-28T01:28:56.740Z,3.60
2023-01-28T01:31:24.948Z,3.60
2023-01-28T01:33:54.042Z,3.60
2023-01-28T01:36:23.719Z,3.60
2023-01-28T01:38:54.844Z,3.60
2023-01-28T01:41:28.751Z,3.60
2023-01-28T01:43:59.173Z,3.60
2023-01-28T01:46:34.437Z,3.60
2023-01-28T01:49:12.814Z,3.60
2023-01-28T01:51:43.742Z,3.70
2023-01-28T01:54:11.994Z,3.70
2023-01-28T01:56:44.220Z,3.70
2023-01-28T01:59:16.568Z,3.60
2023-01-28T02:01:46.600Z,3.60
2023-01-28T02:04:20.310Z,3.60
2023-01-28T02:06:50.568Z,3.70
2023-01-28T02:09:26.789Z,3.60
2023-01-28T02:11:57.729Z,3.60
2023-01-28T02:14:31.720Z,3.60
2023-01-28T02:17:02.216Z,3.60
2023-01-28T02:19:38.222Z,3.60
2023-01-28T02:22:39.910Z,3.60
2023-01-28T02:25:31.620Z,3.60
2023-01-28T02:28:17.011Z,3.60
2023-01-28T02:30:52.544Z,3.60
2023-01-28T02:33:29.692Z,3.60
2023-01-28T02:36:00.015Z,3.60
2023-01-28T02:38:33.105Z,3.60
2023-01-28T02:41:06.621Z,3.60
2023-01-28T02:43:38.682Z,3.60
2023-01-28T02:46:35.734Z,3.70
2023-01-28T02:49:06.421Z,3.70
2023-01-28T02:51:50.908Z,3.70
2023-01-28T02:54:28.313Z,3.70
2023-01-28T02:57:05.088Z,3.70
2023-01-28T02:59:41.746Z,3.70
2023-01-28T03:02:16.583Z,3.70
2023-01-28T03:04:50.152Z,3.60
2023-01-28T03:07:19.484Z,3.60
2023-01-28T03:09:48.681Z,3.60
2023-01-28T03:12:39.052Z,3.60
2023-01-28T03:15:31.974Z,3.60
2023-01-28T03:18:22.137Z,3.60
2023-01-28T03:21:13.450Z,3.60
2023-01-28T03:24:06.833Z,3.60
2023-01-28T03:26:56.588Z,3.50
2023-01-28T03:29:43.884Z,3.60
2023-01-28T03:32:31.595Z,3.40
2023-01-28T03:35:17.758Z,3.50
2023-01-28T03:37:46.661Z,3.40
2023-01-28T03:40:15.355Z,3.50
2023-01-28T03:42:43.428Z,3.50
2023-01-28T03:45:12.859Z,3.50
2023-01-28T03:47:43.307Z,3.50
2023-01-28T03:50:12.287Z,3.50
2023-01-28T03:52:40.547Z,3.50
2023-01-28T03:55:14.186Z,3.50
2023-01-28T03:57:44.749Z,3.50
2023-01-28T04:00:14.410Z,3.50
2023-01-28T04:02:43.914Z,3.50
2023-01-28T04:05:15.881Z,3.50
2023-01-28T04:07:44.335Z,3.50
2023-01-28T04:10:13.389Z,3.50
2023-01-28T04:12:41.463Z,3.40
2023-01-28T04:15:16.085Z,3.40
2023-01-28T04:17:47.756Z,3.50
2023-01-28T04:20:16.610Z,3.50
2023-01-28T04:22:44.793Z,3.50
2023-01-28T04:25:13.500Z,3.50
2023-01-28T04:27:41.947Z,3.40
2023-01-28T04:30:11.371Z,3.40
2023-01-28T04:32:39.526Z,3.40
2023-01-28T04:35:10.085Z,3.40
2023-01-28T04:37:38.209Z,3.40
2023-01-28T04:40:07.285Z,3.40
2023-01-28T04:42:35.384Z,3.40
2023-01-28T04:45:03.615Z,3.50
2023-01-28T04:47:31.746Z,3.40
2023-01-28T04:49:59.855Z,3.30
2023-01-28T04:52:29.293Z,3.30
2023-01-28T04:54:57.311Z,3.40
2023-01-28T04:57:25.449Z,3.40
2023-01-28T04:59:53.577Z,3.30
2023-01-28T05:02:21.690Z,3.30
2023-01-28T05:04:49.839Z,3.30
2023-01-28T05:07:17.902Z,3.30
2023-01-28T05:09:47.527Z,3.40
2023-01-28T05:12:15.619Z,3.30
2023-01-28T05:14:43.705Z,3.40
2023-01-28T05:17:11.831Z,3.30
2023-01-28T05:19:40.005Z,3.40
2023-01-28T05:22:08.069Z,3.30
2023-01-28T05:24:36.267Z,3.30
2023-01-28T05:27:05.679Z,3.20
2023-01-28T05:29:33.884Z,3.20
2023-01-28T05:32:04.062Z,3.20
2023-01-28T05:34:32.109Z,3.20
2023-01-28T05:37:00.181Z,3.20
2023-01-28T05:39:28.291Z,3.20
2023-01-28T05:41:56.426Z,3.20
2023-01-28T05:44:25.914Z,3.20
2023-01-28T05:46:54.075Z,3.30
2023-01-28T05:49:22.305Z,3.30
2023-01-28T05:51:50.394Z,3.30
2023-01-28T05:54:18.418Z,3.30
2023-01-28T05:56:47.479Z,3.20
2023-01-28T05:59:16.096Z,3.20
2023-01-28T06:01:45.521Z,3.20
2023-01-28T06:04:13.749Z,3.20
2023-01-28T06:06:41.911Z,3.20
2023-01-28T06:09:09.946Z,3.10
2023-01-28T06:11:38.061Z,3.20
2023-01-28T06:14:06.194Z,3.10
2023-01-28T06:16:35.041Z,3.20
2023-01-28T06:19:04.579Z,3.10
2023-01-28T06:21:32.697Z,3.20
2023-01-28T06:24:00.879Z,3.20
2023-01-28T06:26:29.036Z,3.10
2023-01-28T06:28:57.181Z,3.00
2023-01-28T06:31:25.232Z,3.10
2023-01-28T06:33:53.391Z,3.10
2023-01-28T06:36:22.885Z,3.10
2023-01-28T06:38:51.045Z,3.10
2023-01-28T06:41:19.207Z,3.10
2023-01-28T06:43:47.341Z,3.10
2023-01-28T06:46:15.391Z,3.10
2023-01-28T06:48:43.475Z,3.10
2023-01-28T06:51:11.563Z,3.10
2023-01-28T06:53:40.984Z,3.10
2023-01-28T06:56:09.575Z,3.10
2023-01-28T06:58:37.578Z,3.10
2023-01-28T07:01:05.907Z,3.10
2023-01-28T07:03:34.042Z,3.00
2023-01-28T07:06:02.132Z,3.10
2023-01-28T07:08:30.230Z,3.00
2023-01-28T07:10:59.639Z,3.10
2023-01-28T07:13:27.742Z,3.10
2023-01-28T07:15:55.714Z,3.10
2023-01-28T07:18:23.983Z,3.10
2023-01-28T07:20:52.104Z,3.00
2023-01-28T07:23:20.223Z,2.90
2023-01-28T07:25:48.334Z,2.90
2023-01-28T07:28:21.355Z,3.00
2023-01-28T07:30:53.269Z,3.00
2023-01-28T07:33:22.219Z,3.00
2023-01-28T07:35:50.684Z,3.00
2023-01-28T07:38:18.927Z,3.00
2023-01-28T07:40:47.928Z,3.00
2023-01-28T07:43:17.437Z,3.00
2023-01-28T07:45:48.435Z,3.00
2023-01-28T07:48:17.001Z,3.00
2023-01-28T07:50:46.157Z,3.00
2023-01-28T07:53:14.319Z,3.00
2023-01-28T07:55:42.435Z,3.00
2023-01-28T07:58:12.981Z,3.00
2023-01-28T08:00:42.442Z,3.00
2023-01-28T08:03:14.527Z,3.00
2023-01-28T08:05:46.604Z,3.00
2023-01-28T08:08:15.147Z,2.90
2023-01-28T08:10:44.053Z,2.80
2023-01-28T08:13:13.789Z,2.80
2023-01-28T08:15:43.250Z,2.80
2023-01-28T08:18:13.583Z,2.90
2023-01-28T08:20:43.462Z,2.90
2023-01-28T08:23:14.083Z,2.80
2023-01-28T08:25:42.760Z,2.80
2023-01-28T08:28:11.770Z,2.80
2023-01-28T08:30:40.456Z,2.70
2023-01-28T08:33:11.965Z,2.80
2023-01-28T08:35:40.512Z,2.80
2023-01-28T08:38:10.150Z,2.80
2023-01-28T08:40:38.366Z,2.80
2023-01-28T08:43:06.646Z,2.90
2023-01-28T08:45:35.230Z,2.90
2023-01-28T08:48:05.463Z,2.90
2023-01-28T08:50:36.713Z,2.90
2023-01-28T08:53:06.738Z,2.90
2023-01-28T08:55:35.707Z,2.90
2023-01-28T08:58:05.279Z,2.90
2023-01-28T09:00:34.745Z,3.00
2023-01-28T09:03:05.870Z,3.10
2023-01-28T09:05:36.241Z,3.10
2023-01-28T09:08:04.918Z,3.20
2023-01-28T09:10:33.443Z,3.20
2023-01-28T09:13:06.453Z,3.20
2023-01-28T09:15:34.447Z,3.30
2023-01-28T09:18:03.678Z,3.40
2023-01-28T09:20:32.351Z,3.40
2023-01-28T09:23:04.068Z,3.40
2023-01-28T09:25:32.258Z,3.50
2023-01-28T09:28:00.513Z,3.50
2023-01-28T09:30:28.900Z,3.50
2023-01-28T09:32:58.478Z,3.50
2023-01-28T09:35:26.897Z,3.60
2023-01-28T09:37:58.240Z,3.50
2023-01-28T09:40:33.101Z,3.50
2023-01-28T09:43:19.493Z,3.70
2023-01-28T09:45:51.385Z,3.70
2023-01-28T09:48:22.692Z,3.70
2023-01-28T09:50:54.001Z,3.80
2023-01-28T09:53:24.853Z,3.90
2023-01-28T09:55:58.004Z,4.00
2023-01-28T09:58:26.289Z,3.90
2023-01-28T10:01:01.151Z,4.00
2023-01-28T10:03:50.125Z,3.90
2023-01-28T10:06:27.412Z,3.90
2023-01-28T10:09:20.554Z,3.90
2023-01-28T10:12:10.406Z,3.80
2023-01-28T10:14:50.979Z,3.90
2023-01-28T10:17:25.465Z,3.80
2023-01-28T10:19:58.651Z,3.70
2023-01-28T10:22:31.500Z,3.80
2023-01-28T10:25:06.503Z,4.10
2023-01-28T10:27:38.320Z,4.30
2023-01-28T10:30:19.279Z,4.40
2023-01-28T10:32:53.403Z,4.60
2023-01-28T10:35:22.128Z,4.70
2023-01-28T10:37:51.071Z,4.90
2023-01-28T10:40:20.224Z,5.00
2023-01-28T10:42:50.056Z,5.00
2023-01-28T10:45:21.728Z,4.90
2023-01-28T10:47:54.676Z,5.10
2023-01-28T10:50:25.695Z,5.20
2023-01-28T10:52:55.831Z,5.00
2023-01-28T10:55:25.520Z,5.00
2023-01-28T10:57:55.609Z,5.20
2023-01-28T11:00:30.838Z,5.40
2023-01-28T11:02:59.065Z,5.50
2023-01-28T11:05:29.366Z,5.50
2023-01-28T11:08:13.312Z,5.70
2023-01-28T11:10:42.419Z,5.80
2023-01-28T11:13:18.055Z,5.70
2023-01-28T11:15:50.466Z,5.80
2023-01-28T11:18:24.876Z,5.40
2023-01-28T11:20:56.839Z,5.50
2023-01-28T11:23:27.669Z,5.70
2023-01-28T11:26:08.212Z,5.80
2023-01-28T11:28:42.690Z,5.60
2023-01-28T11:31:14.120Z,5.70
2023-01-28T11:33:47.152Z,5.50
2023-01-28T11:36:17.018Z,5.50
2023-01-28T11:38:53.794Z,5.70
2023-01-28T11:41:28.115Z,5.70
2023-01-28T11:43:59.317Z,5.90
2023-01-28T11:46:44.634Z,6.00
2023-01-28T11:49:22.548Z,6.10
2023-01-28T11:51:57.737Z,6.00
2023-01-28T11:54:37.063Z,6.00
2023-01-28T11:57:25.500Z,5.80
2023-01-28T12:00:22.137Z,5.50
2023-01-28T12:02:58.808Z,5.90
2023-01-28T12:05:42.402Z,6.00
2023-01-28T12:08:19.613Z,6.20
2023-01-28T12:11:01.733Z,6.20
2023-01-28T12:13:44.355Z,6.60
2023-01-28T12:16:45.981Z,6.80
2023-01-28T12:19:53.525Z,6.80
2023-01-28T12:22:46.984Z,6.80
2023-01-28T12:25:28.236Z,6.90
2023-01-28T12:28:04.181Z,6.90
2023-01-28T12:30:52.575Z,7.00
2023-01-28T12:33:47.968Z,7.10
2023-01-28T12:36:31.493Z,7.40
2023-01-28T12:39:10.725Z,7.30
2023-01-28T12:41:43.954Z,7.20
2023-01-28T12:44:16.330Z,7.20
2023-01-28T12:46:51.262Z,7.50
2023-01-28T12:49:22.314Z,7.40
2023-01-28T12:52:02.860Z,7.30
2023-01-28T12:54:38.170Z,7.80
2023-01-28T12:57:09.029Z,7.10
2023-01-28T12:59:45.418Z,7.20
2023-01-28T13:02:23.320Z,7.30
2023-01-28T13:04:57.897Z,7.70
2023-01-28T13:07:33.318Z,8.20
2023-01-28T13:10:05.272Z,8.00
2023-01-28T13:12:34.486Z,7.80
2023-01-28T13:15:03.186Z,7.60
2023-01-28T13:17:33.322Z,7.40
2023-01-28T13:20:01.725Z,7.80
2023-01-28T13:22:35.287Z,7.90
2023-01-28T13:25:23.939Z,7.90
2023-01-28T13:28:00.788Z,7.60
2023-01-28T13:30:30.873Z,7.50
2023-01-28T13:33:01.657Z,7.30
2023-01-28T13:35:34.100Z,7.30
2023-01-28T13:38:10.257Z,7.40
2023-01-28T13:40:41.006Z,7.60
2023-01-28T13:43:28.600Z,7.60
2023-01-28T13:45:58.233Z,7.90
2023-01-28T13:48:33.459Z,7.60
2023-01-28T13:51:03.300Z,7.40
2023-01-28T13:53:45.364Z,7.00
2023-01-28T13:56:22.490Z,7.10
2023-01-28T13:59:09.631Z,7.00
2023-01-28T14:02:02.601Z,6.90
2023-01-28T14:05:01.648Z,7.00
2023-01-28T14:08:03.146Z,6.60
2023-01-28T14:10:50.280Z,6.50
2023-01-28T14:13:34.878Z,6.40
2023-01-28T14:16:28.678Z,6.30
2023-01-28T14:19:00.604Z,6.30
2023-01-28T14:21:32.120Z,6.20
2023-01-28T14:24:01.685Z,6.10
2023-01-28T14:26:40.789Z,6.10
2023-01-28T14:29:30.099Z,6.10
2023-01-28T14:31:58.459Z,6.00
2023-01-28T14:34:30.627Z,6.00
2023-01-28T14:37:02.711Z,5.90
2023-01-28T14:39:34.146Z,5.90
2023-01-28T14:42:04.655Z,5.90
2023-01-28T14:44:34.992Z,5.90
2023-01-28T14:47:30.673Z,6.00
2023-01-28T14:50:15.867Z,5.90
2023-01-28T14:53:12.956Z,5.80
2023-01-28T14:55:50.201Z,5.70
2023-01-28T14:58:25.888Z,5.70
2023-01-28T15:00:56.634Z,5.60
2023-01-28T15:03:25.966Z,5.50
2023-01-28T15:06:04.727Z,5.50
2023-01-28T15:08:33.299Z,5.50
2023-01-28T15:11:03.212Z,5.40
2023-01-28T15:13:38.556Z,5.40
2023-01-28T15:16:08.417Z,5.40
2023-01-28T15:18:39.048Z,5.40
2023-01-28T15:21:07.453Z,5.40
2023-01-28T15:23:37.604Z,5.40
2023-01-28T15:26:12.012Z,5.40
2023-01-28T15:28:41.992Z,5.40
2023-01-28T15:31:21.177Z,5.50
2023-01-28T15:33:57.814Z,5.50
2023-01-28T15:36:27.001Z,5.60
2023-01-28T15:38:55.225Z,5.50
2023-01-28T15:41:26.078Z,5.40
2023-01-28T15:43:55.659Z,5.40
2023-01-28T15:46:23.910Z,5.40
2023-01-28T15:48:59.105Z,5.30
2023-01-28T15:51:28.605Z,5.30
2023-01-28T15:54:00.924Z,5.30
2023-01-28T15:56:30.700Z,5.30
2023-01-28T15:59:17.681Z,5.30
2023-01-28T16:01:46.091Z,5.20
2023-01-28T16:04:24.451Z,5.20
2023-01-28T16:06:53.592Z,5.20
2023-01-28T16:09:25.202Z,5.20
2023-01-28T16:11:56.236Z,5.20
2023-01-28T16:14:29.250Z,5.10
2023-01-28T16:16:58.476Z,5.10
2023-01-28T16:19:49.177Z,5.10
2023-01-28T16:22:21.795Z,5.00
2023-01-28T16:24:52.243Z,4.90
2023-01-28T16:27:24.297Z,4.90
2023-01-28T16:29:52.798Z,4.80
2023-01-28T16:32:32.356Z,4.90
2023-01-28T16:35:03.185Z,4.80
2023-01-28T16:37:31.403Z,4.80
2023-01-28T16:40:01.582Z,4.80
2023-01-28T16:42:32.213Z,4.70
2023-01-28T16:45:00.497Z,4.70
2023-01-28T16:47:28.562Z,4.70
2023-01-28T16:49:56.651Z,4.80
2023-01-28T16:52:26.096Z,4.70
2023-01-28T16:54:54.232Z,4.70
2023-01-28T16:57:23.384Z,4.70
2023-01-28T16:59:51.510Z,4.70
2023-01-28T17:02:19.681Z,4.60
2023-01-28T17:04:47.724Z,4.60
2023-01-28T17:07:15.854Z,4.70
2023-01-28T17:09:45.360Z,4.70
2023-01-28T17:12:13.456Z,4.70
2023-01-28T17:14:41.643Z,4.60
2023-01-28T17:17:09.724Z,4.60
2023-01-28T17:19:37.832Z,4.60
2023-01-28T17:22:05.959Z,4.60
2023-01-28T17:24:34.147Z,4.60
2023-01-28T17:27:03.629Z,4.60
2023-01-28T17:29:31.905Z,4.60
2023-01-28T17:32:00.197Z,4.60
2023-01-28T17:34:28.555Z,4.50
2023-01-28T17:36:56.768Z,4.50
2023-01-28T17:39:25.112Z,4.50
2023-01-28T17:41:53.125Z,4.50
2023-01-28T17:44:23.108Z,4.40
2023-01-28T17:46:51.223Z,4.40
2023-01-28T17:49:19.357Z,4.30
2023-01-28T17:51:47.468Z,4.30
2023-01-28T17:54:16.905Z,4.30
2023-01-28T17:56:44.965Z,4.20
2023-01-28T17:59:16.848Z,4.20
2023-01-28T18:01:49.595Z,4.20
2023-01-28T18:04:18.962Z,4.20
2023-01-28T18:06:49.369Z,4.10
2023-01-28T18:09:17.977Z,4.20
2023-01-28T18:11:46.572Z,4.10
2023-01-28T18:14:15.954Z,4.10
2023-01-28T18:16:44.497Z,4.10
2023-01-28T18:19:14.736Z,4.10
2023-01-28T18:21:52.721Z,4.10
2023-01-28T18:24:24.090Z,4.10
2023-01-28T18:26:55.443Z,4.10
2023-01-28T18:29:24.447Z,4.10
2023-01-28T18:31:54.376Z,4.10
2023-01-28T18:34:26.182Z,4.00
2023-01-28T18:36:54.350Z,4.00
2023-01-28T18:39:24.007Z,4.00
2023-01-28T18:41:55.086Z,4.00
2023-01-28T18:44:28.386Z,4.00
2023-01-28T18:46:57.199Z,4.00
2023-01-28T18:49:27.518Z,4.00
2023-01-28T18:51:55.638Z,4.00
2023-01-28T18:54:24.939Z,4.00
2023-01-28T18:56:53.220Z,4.00
2023-01-28T18:59:21.386Z,4.10
2023-01-28T19:01:50.316Z,4.00
2023-01-28T19:04:19.046Z,4.00
2023-01-28T19:06:49.273Z,4.00
2023-01-28T19:09:18.375Z,4.00
2023-01-28T19:11:48.463Z,4.10
2023-01-28T19:14:17.380Z,4.00
2023-01-28T19:16:45.879Z,4.00
2023-01-28T19:19:14.057Z,4.00
2023-01-28T19:21:42.262Z,4.00
2023-01-28T19:24:14.104Z,4.00
2023-01-28T19:26:43.863Z,4.00
2023-01-28T19:29:15.544Z,4.00
2023-01-28T19:31:48.453Z,4.00
2023-01-28T19:34:16.984Z,4.00
2023-01-28T19:36:45.276Z,4.00
2023-01-28T19:39:15.475Z,4.00
2023-01-28T19:41:44.650Z,4.00
2023-01-28T19:44:13.373Z,4.00
2023-01-28T19:46:41.618Z,3.90
2023-01-28T19:49:10.642Z,3.90
2023-01-28T19:51:38.712Z,3.90
2023-01-28T19:54:06.834Z,3.90
2023-01-28T19:56:37.592Z,4.00
2023-01-28T19:59:06.387Z,3.90
2023-01-28T20:01:35.537Z,3.90
2023-01-28T20:04:04.797Z,4.00
2023-01-28T20:06:34.030Z,4.00
2023-01-28T20:09:04.284Z,3.90
2023-01-28T20:11:32.618Z,3.90
2023-01-28T20:14:02.314Z,3.90
2023-01-28T20:16:32.412Z,4.00
2023-01-28T20:19:02.502Z,3.90
2023-01-28T20:21:32.045Z,3.90
2023-01-28T20:24:02.173Z,3.90
2023-01-28T20:26:32.268Z,3.90
2023-01-28T20:29:03.375Z,3.90
2023-01-28T20:31:32.721Z,3.90
2023-01-28T20:34:01.825Z,3.90
2023-01-28T20:36:30.160Z,3.90
2023-01-28T20:38:58.622Z,3.90
2023-01-28T20:41:27.411Z,3.90
2023-01-28T20:43:56.051Z,3.90
2023-01-28T20:46:28.340Z,3.90
2023-01-28T20:48:57.847Z,4.00
2023-01-28T20:51:27.456Z,3.90
2023-01-28T20:53:56.531Z,3.90
2023-01-28T20:56:26.250Z,3.90
2023-01-28T20:58:56.491Z,3.90
2023-01-28T21:01:28.763Z,3.90
2023-01-28T21:03:57.561Z,3.90
2023-01-28T21:06:26.569Z,3.80
2023-01-28T21:08:54.661Z,3.80
2023-01-28T21:11:23.748Z,3.80
2023-01-28T21:13:52.219Z,3.70
2023-01-28T21:16:20.495Z,3.70
2023-01-28T21:18:50.378Z,3.70
2023-01-28T21:21:20.668Z,3.70
2023-01-28T21:23:48.788Z,3.70
2023-01-28T21:26:17.771Z,3.70
2023-01-28T21:28:46.288Z,3.70
2023-01-28T21:31:17.967Z,3.70
2023-01-28T21:33:50.783Z,3.70
2023-01-28T21:36:19.566Z,3.70
2023-01-28T21:38:52.847Z,3.70
2023-01-28T21:41:20.999Z,3.70
2023-01-28T21:43:52.124Z,3.70
2023-01-28T21:46:20.364Z,3.70
2023-01-28T21:48:49.792Z,3.70
2023-01-28T21:51:35.237Z,3.60
2023-01-28T21:54:03.582Z,3.60
2023-01-28T21:56:31.769Z,3.60
2023-01-28T21:59:17.478Z,3.60
2023-01-28T22:01:46.033Z,3.60
2023-01-28T22:04:16.373Z,3.60
2023-01-28T22:06:45.202Z,3.50
2023-01-28T22:09:14.235Z,3.50
2023-01-28T22:11:44.463Z,3.50
2023-01-28T22:14:13.552Z,3.50
2023-01-28T22:16:42.012Z,3.50
2023-01-28T22:19:10.755Z,3.50
2023-01-28T22:21:41.876Z,3.50
2023-01-28T22:24:12.709Z,3.50
2023-01-28T22:26:41.262Z,3.50
2023-01-28T22:29:09.767Z,3.50
2023-01-28T22:31:38.211Z,3.50
2023-01-28T22:34:07.159Z,3.50
2023-01-28T22:36:36.138Z,3.50
2023-01-28T22:39:08.378Z,3.60
2023-01-28T22:41:36.527Z,3.60
2023-01-28T22:44:04.763Z,3.60
2023-01-28T22:46:33.983Z,3.60
2023-01-28T22:49:03.254Z,3.50
2023-01-28T22:51:32.976Z,3.50
2023-01-28T22:54:01.306Z,3.50
2023-01-28T22:56:32.026Z,3.50
2023-01-28T22:59:02.388Z,3.40
2023-01-28T23:01:31.093Z,3.40
2023-01-28T23:03:59.408Z,3.40
2023-01-28T23:06:28.442Z,3.40
2023-01-28T23:08:57.200Z,3.40
2023-01-28T23:11:28.840Z,3.40
2023-01-28T23:14:18.629Z,3.40
2023-01-28T23:17:05.350Z,3.40
2023-01-28T23:19:51.080Z,3.40
2023-01-28T23:22:40.573Z,3.50
2023-01-28T23:25:09.369Z,3.50
2023-01-28T23:27:37.884Z,3.50
2023-01-28T23:30:10.360Z,3.40
2023-01-28T23:32:39.987Z,3.40
2023-01-28T23:35:08.884Z,3.40
2023-01-28T23:37:37.111Z,3.40
2023-01-28T23:40:06.092Z,3.40
2023-01-28T23:42:34.259Z,3.40
2023-01-28T23:45:02.370Z,3.40
2023-01-28T23:47:32.219Z,3.40
2023-01-28T23:50:00.506Z,3.50
2023-01-28T23:52:28.593Z,3.50
2023-01-28T23:54:56.699Z,3.50
2023-01-28T23:57:24.933Z,3.50
2023-01-28T23:59:53.430Z,3.50
